sensor_id;sensor_type;location;lat;lon;timestamp;temperature;humidity
43673;DHT22;41723;49.326;8.430;2023-04-01T00:01:43;10.80;99.90
43673;DHT22;41723;49.326;8.430;2023-04-01T00:04:10;10.70;99.90
43673;DHT22;41723;49.326;8.430;2023-04-01T00:06:35;10.70;99.90
43673;DHT22;41723;49.326;8.430;2023-04-01T00:09:01;10.80;99.90
43673;DHT22;41723;49.326;8.430;2023-04-01T00:11:27;10.70;99.90
43673;DHT22;41723;49.326;8.430;2023-04-01T00:13:55;10.70;99.90
43673;DHT22;41723;49.326;8.430;2023-04-01T00:16:21;10.70;99.90
43673;DHT22;41723;49.326;8.430;2023-04-01T00:18:47;10.80;99.90
43673;DHT22;41723;49.326;8.430;2023-04-01T00:21:12;10.70;99.90
43673;DHT22;41723;49.326;8.430;2023-04-01T00:23:38;10.70;99.90
43673;DHT22;41723;49.326;8.430;2023-04-01T00:26:04;10.70;99.90
43673;DHT22;41723;49.326;8.430;2023-04-01T00:28:30;10.70;99.90
43673;DHT22;41723;49.326;8.430;2023-04-01T00:30:56;10.70;99.90
43673;DHT22;41723;49.326;8.430;2023-04-01T00:33:22;10.70;99.90
43673;DHT22;41723;49.326;8.430;2023-04-01T00:35:47;10.60;99.90
43673;DHT22;41723;49.326;8.430;2023-04-01T00:38:13;10.60;99.90
43673;DHT22;41723;49.326;8.430;2023-04-01T00:40:40;10.70;99.90
43673;DHT22;41723;49.326;8.430;2023-04-01T00:43:13;10.70;99.90
43673;DHT22;41723;49.326;8.430;2023-04-01T00:45:40;10.70;99.90
43673;DHT22;41723;49.326;8.430;2023-04-01T00:48:14;10.70;99.90
43673;DHT22;41723;49.326;8.430;2023-04-01T00:50:40;10.70;99.90
43673;DHT22;41723;49.326;8.430;2023-04-01T00:53:07;10.70;99.90
43673;DHT22;41723;49.326;8.430;2023-04-01T00:55:34;10.70;99.90
43673;DHT22;41723;49.326;8.430;2023-04-01T00:58:01;10.70;99.90
43673;DHT22;41723;49.326;8.430;2023-04-01T01:00:28;10.80;99.90
43673;DHT22;41723;49.326;8.430;2023-04-01T01:02:54;10.80;99.90
43673;DHT22;41723;49.326;8.430;2023-04-01T01:05:22;10.70;99.90
43673;DHT22;41723;49.326;8.430;2023-04-01T01:07:53;10.80;99.90
43673;DHT22;41723;49.326;8.430;2023-04-01T01:10:32;10.80;99.90
43673;DHT22;41723;49.326;8.430;2023-04-01T01:13:09;10.70;99.90
43673;DHT22;41723;49.326;8.430;2023-04-01T01:15:36;10.80;99.90
43673;DHT22;41723;49.326;8.430;2023-04-01T01:18:16;10.80;99.90
43673;DHT22;41723;49.326;8.430;2023-04-01T01:20:49;10.80;99.90
43673;DHT22;41723;49.326;8.430;2023-04-01T01:31:42;10.80;99.90
43673;DHT22;41723;49.326;8.430;2023-04-01T01:36:48;10.80;99.90
43673;DHT22;41723;49.326;8.430;2023-04-01T01:39:16;10.80;99.90
43673;DHT22;41723;49.326;8.430;2023-04-01T01:41:42;10.80;99.90
43673;DHT22;41723;49.326;8.430;2023-04-01T01:44:09;10.80;99.90
43673;DHT22;41723;49.326;8.430;2023-04-01T01:46:36;10.80;99.90
43673;DHT22;41723;49.326;8.430;2023-04-01T01:49:03;10.80;99.90
43673;DHT22;41723;49.326;8.430;2023-04-01T01:51:30;10.90;99.90
43673;DHT22;41723;49.326;8.430;2023-04-01T01:53:56;10.90;99.90
43673;DHT22;41723;49.326;8.430;2023-04-01T01:56:23;10.80;99.90
43673;DHT22;41723;49.326;8.430;2023-04-01T01:59:11;10.80;99.90
43673;DHT22;41723;49.326;8.430;2023-04-01T02:01:37;10.90;99.90
43673;DHT22;41723;49.326;8.430;2023-04-01T02:04:10;10.80;99.90
43673;DHT22;41723;49.326;8.430;2023-04-01T02:06:37;10.80;99.90
43673;DHT22;41723;49.326;8.430;2023-04-01T02:09:04;10.90;99.90
43673;DHT22;41723;49.326;8.430;2023-04-01T02:11:40;10.90;99.90
43673;DHT22;41723;49.326;8.430;2023-04-01T02:14:20;10.80;99.90
43673;DHT22;41723;49.326;8.430;2023-04-01T02:16:49;10.80;99.90
43673;DHT22;41723;49.326;8.430;2023-04-01T02:19:16;10.80;99.90
43673;DHT22;41723;49.326;8.430;2023-04-01T02:21:49;10.80;99.90
43673;DHT22;41723;49.326;8.430;2023-04-01T02:24:17;10.80;99.90
43673;DHT22;41723;49.326;8.430;2023-04-01T02:26:43;10.80;99.90
43673;DHT22;41723;49.326;8.430;2023-04-01T02:29:10;10.80;99.90
43673;DHT22;41723;49.326;8.430;2023-04-01T02:31:37;10.70;99.90
43673;DHT22;41723;49.326;8.430;2023-04-01T02:34:03;10.80;99.90
43673;DHT22;41723;49.326;8.430;2023-04-01T02:36:29;10.70;99.90
43673;DHT22;41723;49.326;8.430;2023-04-01T02:38:55;10.80;99.90
43673;DHT22;41723;49.326;8.430;2023-04-01T02:41:21;10.70;99.90
43673;DHT22;41723;49.326;8.430;2023-04-01T02:43:47;10.70;99.90
43673;DHT22;41723;49.326;8.430;2023-04-01T02:46:12;10.80;99.90
43673;DHT22;41723;49.326;8.430;2023-04-01T02:48:38;10.70;99.90
43673;DHT22;41723;49.326;8.430;2023-04-01T02:51:04;10.70;99.90
43673;DHT22;41723;49.326;8.430;2023-04-01T02:53:29;10.70;99.90
43673;DHT22;41723;49.326;8.430;2023-04-01T02:55:55;10.60;99.90
43673;DHT22;41723;49.326;8.430;2023-04-01T02:58:21;10.70;99.90
43673;DHT22;41723;49.326;8.430;2023-04-01T03:00:46;10.70;99.90
43673;DHT22;41723;49.326;8.430;2023-04-01T03:03:13;10.60;99.90
43673;DHT22;41723;49.326;8.430;2023-04-01T03:05:38;10.70;99.90
43673;DHT22;41723;49.326;8.430;2023-04-01T03:08:04;10.70;99.90
43673;DHT22;41723;49.326;8.430;2023-04-01T03:10:30;10.70;99.90
43673;DHT22;41723;49.326;8.430;2023-04-01T03:12:56;10.70;99.90
43673;DHT22;41723;49.326;8.430;2023-04-01T03:15:21;10.70;99.90
43673;DHT22;41723;49.326;8.430;2023-04-01T03:17:47;10.70;99.90
43673;DHT22;41723;49.326;8.430;2023-04-01T03:20:13;10.70;99.90
43673;DHT22;41723;49.326;8.430;2023-04-01T03:22:39;10.70;99.90
43673;DHT22;41723;49.326;8.430;2023-04-01T03:25:05;10.80;99.90
43673;DHT22;41723;49.326;8.430;2023-04-01T03:27:31;10.80;99.90
43673;DHT22;41723;49.326;8.430;2023-04-01T03:29:56;10.80;99.90
43673;DHT22;41723;49.326;8.430;2023-04-01T03:32:22;10.80;99.90
43673;DHT22;41723;49.326;8.430;2023-04-01T03:34:48;10.80;99.90
43673;DHT22;41723;49.326;8.430;2023-04-01T03:37:13;10.80;99.90
43673;DHT22;41723;49.326;8.430;2023-04-01T03:39:39;10.80;99.90
43673;DHT22;41723;49.326;8.430;2023-04-01T03:42:05;10.80;99.90
43673;DHT22;41723;49.326;8.430;2023-04-01T03:44:32;10.80;99.90
43673;DHT22;41723;49.326;8.430;2023-04-01T03:46:58;10.70;99.90
43673;DHT22;41723;49.326;8.430;2023-04-01T03:49:24;10.80;99.90
43673;DHT22;41723;49.326;8.430;2023-04-01T03:51:49;10.80;99.90
43673;DHT22;41723;49.326;8.430;2023-04-01T03:54:15;10.70;99.90
43673;DHT22;41723;49.326;8.430;2023-04-01T03:56:43;10.70;99.90
43673;DHT22;41723;49.326;8.430;2023-04-01T03:59:08;10.70;99.90
43673;DHT22;41723;49.326;8.430;2023-04-01T04:01:34;10.70;99.90
43673;DHT22;41723;49.326;8.430;2023-04-01T04:04:00;10.70;99.90
43673;DHT22;41723;49.326;8.430;2023-04-01T04:06:26;10.60;99.90
43673;DHT22;41723;49.326;8.430;2023-04-01T04:08:52;10.60;99.90
43673;DHT22;41723;49.326;8.430;2023-04-01T04:11:19;10.60;99.90
43673;DHT22;41723;49.326;8.430;2023-04-01T04:13:46;10.60;99.90
43673;DHT22;41723;49.326;8.430;2023-04-01T04:16:15;10.60;99.90
43673;DHT22;41723;49.326;8.430;2023-04-01T04:18:45;10.60;99.90
43673;DHT22;41723;49.326;8.430;2023-04-01T04:21:12;10.50;99.90
43673;DHT22;41723;49.326;8.430;2023-04-01T04:23:38;10.50;99.90
43673;DHT22;41723;49.326;8.430;2023-04-01T04:26:05;10.50;99.90
43673;DHT22;41723;49.326;8.430;2023-04-01T04:28:31;10.40;99.90
43673;DHT22;41723;49.326;8.430;2023-04-01T04:30:58;10.40;99.90
43673;DHT22;41723;49.326;8.430;2023-04-01T04:33:24;10.40;99.90
43673;DHT22;41723;49.326;8.430;2023-04-01T04:35:50;10.30;99.90
43673;DHT22;41723;49.326;8.430;2023-04-01T04:38:16;10.30;99.90
43673;DHT22;41723;49.326;8.430;2023-04-01T04:40:42;10.20;99.90
43673;DHT22;41723;49.326;8.430;2023-04-01T04:43:13;10.10;99.90
43673;DHT22;41723;49.326;8.430;2023-04-01T04:45:38;10.20;99.90
43673;DHT22;41723;49.326;8.430;2023-04-01T04:48:04;10.10;99.90
43673;DHT22;41723;49.326;8.430;2023-04-01T04:50:32;10.10;99.90
43673;DHT22;41723;49.326;8.430;2023-04-01T04:52:58;10.20;99.90
43673;DHT22;41723;49.326;8.430;2023-04-01T04:55:24;10.10;99.90
43673;DHT22;41723;49.326;8.430;2023-04-01T04:58:05;10.10;99.90
43673;DHT22;41723;49.326;8.430;2023-04-01T05:00:31;10.10;99.90
43673;DHT22;41723;49.326;8.430;2023-04-01T05:03:00;10.20;99.90
43673;DHT22;41723;49.326;8.430;2023-04-01T05:05:28;10.20;99.90
43673;DHT22;41723;49.326;8.430;2023-04-01T05:07:53;10.20;99.90
43673;DHT22;41723;49.326;8.430;2023-04-01T05:10:19;10.20;99.90
43673;DHT22;41723;49.326;8.430;2023-04-01T05:12:46;10.20;99.90
43673;DHT22;41723;49.326;8.430;2023-04-01T05:15:16;10.30;99.90
43673;DHT22;41723;49.326;8.430;2023-04-01T05:17:42;10.20;99.90
43673;DHT22;41723;49.326;8.430;2023-04-01T05:20:09;10.20;99.90
43673;DHT22;41723;49.326;8.430;2023-04-01T05:22:35;10.20;99.90
43673;DHT22;41723;49.326;8.430;2023-04-01T05:25:00;10.20;99.90
43673;DHT22;41723;49.326;8.430;2023-04-01T05:27:27;10.30;99.90
43673;DHT22;41723;49.326;8.430;2023-04-01T05:29:53;10.30;99.90
43673;DHT22;41723;49.326;8.430;2023-04-01T05:32:42;10.30;99.90
43673;DHT22;41723;49.326;8.430;2023-04-01T05:35:09;10.20;99.90
43673;DHT22;41723;49.326;8.430;2023-04-01T05:37:35;10.20;99.90
43673;DHT22;41723;49.326;8.430;2023-04-01T05:40:03;10.20;99.90
43673;DHT22;41723;49.326;8.430;2023-04-01T05:42:29;10.20;99.90
43673;DHT22;41723;49.326;8.430;2023-04-01T05:44:55;10.20;99.90
43673;DHT22;41723;49.326;8.430;2023-04-01T05:47:39;10.20;99.90
43673;DHT22;41723;49.326;8.430;2023-04-01T05:50:05;10.20;99.90
43673;DHT22;41723;49.326;8.430;2023-04-01T05:52:31;10.20;99.90
43673;DHT22;41723;49.326;8.430;2023-04-01T05:54:56;10.20;99.90
43673;DHT22;41723;49.326;8.430;2023-04-01T05:57:22;10.20;99.90
43673;DHT22;41723;49.326;8.430;2023-04-01T05:59:48;10.30;99.90
43673;DHT22;41723;49.326;8.430;2023-04-01T06:02:15;10.20;99.90
43673;DHT22;41723;49.326;8.430;2023-04-01T06:04:40;10.30;99.90
43673;DHT22;41723;49.326;8.430;2023-04-01T06:07:13;10.20;99.90
43673;DHT22;41723;49.326;8.430;2023-04-01T06:09:39;10.30;99.90
43673;DHT22;41723;49.326;8.430;2023-04-01T06:22:39;10.40;99.90
43673;DHT22;41723;49.326;8.430;2023-04-01T06:25:21;10.40;99.90
43673;DHT22;41723;49.326;8.430;2023-04-01T06:38:34;10.30;99.90
43673;DHT22;41723;49.326;8.430;2023-04-01T06:41:06;10.30;99.90
43673;DHT22;41723;49.326;8.430;2023-04-01T06:58:18;10.30;99.90
43673;DHT22;41723;49.326;8.430;2023-04-01T07:00:46;10.30;99.90
43673;DHT22;41723;49.326;8.430;2023-04-01T07:05:46;10.30;99.90
43673;DHT22;41723;49.326;8.430;2023-04-01T07:08:16;10.40;99.90
43673;DHT22;41723;49.326;8.430;2023-04-01T07:10:54;10.30;99.90
43673;DHT22;41723;49.326;8.430;2023-04-01T07:14:21;10.30;99.90
43673;DHT22;41723;49.326;8.430;2023-04-01T07:16:47;10.30;99.90
43673;DHT22;41723;49.326;8.430;2023-04-01T07:19:16;10.30;99.90
43673;DHT22;41723;49.326;8.430;2023-04-01T07:25:34;10.30;99.90
43673;DHT22;41723;49.326;8.430;2023-04-01T07:28:30;10.20;99.90
43673;DHT22;41723;49.326;8.430;2023-04-01T07:31:07;10.20;99.90
43673;DHT22;41723;49.326;8.430;2023-04-01T07:33:44;10.20;99.90
43673;DHT22;41723;49.326;8.430;2023-04-01T07:43:41;10.20;99.90
43673;DHT22;41723;49.326;8.430;2023-04-01T07:46:34;10.20;99.90
43673;DHT22;41723;49.326;8.430;2023-04-01T07:49:07;10.30;99.90
43673;DHT22;41723;49.326;8.430;2023-04-01T07:52:00;10.30;99.90
43673;DHT22;41723;49.326;8.430;2023-04-01T08:02:56;10.40;99.90
43673;DHT22;41723;49.326;8.430;2023-04-01T08:05:26;10.50;99.90
43673;DHT22;41723;49.326;8.430;2023-04-01T08:10:56;10.40;99.90
43673;DHT22;41723;49.326;8.430;2023-04-01T08:13:44;10.40;99.90
43673;DHT22;41723;49.326;8.430;2023-04-01T08:16:46;10.40;99.90
43673;DHT22;41723;49.326;8.430;2023-04-01T08:21:47;10.30;99.90
43673;DHT22;41723;49.326;8.430;2023-04-01T08:27:01;10.30;99.90
43673;DHT22;41723;49.326;8.430;2023-04-01T08:34:37;10.20;99.90
43673;DHT22;41723;49.326;8.430;2023-04-01T08:37:05;10.20;99.90
43673;DHT22;41723;49.326;8.430;2023-04-01T08:39:39;10.10;99.90
43673;DHT22;41723;49.326;8.430;2023-04-01T08:53:03;10.00;99.90
43673;DHT22;41723;49.326;8.430;2023-04-01T08:55:46;10.10;99.90
43673;DHT22;41723;49.326;8.430;2023-04-01T09:03:38;10.10;99.90
43673;DHT22;41723;49.326;8.430;2023-04-01T09:11:28;10.30;99.90
43673;DHT22;41723;49.326;8.430;2023-04-01T09:27:10;10.40;99.90
43673;DHT22;41723;49.326;8.430;2023-04-01T10:02:26;10.70;99.90
43673;DHT22;41723;49.326;8.430;2023-04-01T10:15:29;10.80;99.90
43673;DHT22;41723;49.326;8.430;2023-04-01T10:23:19;11.00;99.90
43673;DHT22;41723;49.326;8.430;2023-04-01T10:26:08;11.00;99.90
43673;DHT22;41723;49.326;8.430;2023-04-01T10:59:06;11.30;99.90
43673;DHT22;41723;49.326;8.430;2023-04-01T11:14:04;11.10;99.90
43673;DHT22;41723;49.326;8.430;2023-04-01T11:29:39;11.30;99.90
43673;DHT22;41723;49.326;8.430;2023-04-01T11:45:46;11.30;99.90
43673;DHT22;41723;49.326;8.430;2023-04-01T11:48:24;11.20;99.90
43673;DHT22;41723;49.326;8.430;2023-04-01T11:51:01;11.40;99.90
43673;DHT22;41723;49.326;8.430;2023-04-01T11:58:52;11.40;99.90
43673;DHT22;41723;49.326;8.430;2023-04-01T12:01:30;11.40;99.90
43673;DHT22;41723;49.326;8.430;2023-04-01T12:04:17;11.40;99.90
43673;DHT22;41723;49.326;8.430;2023-04-01T12:06:48;11.40;99.90
43673;DHT22;41723;49.326;8.430;2023-04-01T12:11:52;11.40;99.90
43673;DHT22;41723;49.326;8.430;2023-04-01T12:24:45;11.40;99.90
43673;DHT22;41723;49.326;8.430;2023-04-01T12:27:19;11.50;99.90
43673;DHT22;41723;49.326;8.430;2023-04-01T12:30:00;11.50;99.90
43673;DHT22;41723;49.326;8.430;2023-04-01T12:32:35;11.50;99.90
43673;DHT22;41723;49.326;8.430;2023-04-01T12:37:46;11.50;99.90
43673;DHT22;41723;49.326;8.430;2023-04-01T12:48:01;11.40;99.90
43673;DHT22;41723;49.326;8.430;2023-04-01T12:50:48;11.40;99.90
43673;DHT22;41723;49.326;8.430;2023-04-01T12:53:29;11.40;99.90
43673;DHT22;41723;49.326;8.430;2023-04-01T12:56:02;11.50;99.90
43673;DHT22;41723;49.326;8.430;2023-04-01T12:58:50;11.40;99.90
43673;DHT22;41723;49.326;8.430;2023-04-01T13:06:25;11.50;99.90
43673;DHT22;41723;49.326;8.430;2023-04-01T13:16:38;11.70;99.90
43673;DHT22;41723;49.326;8.430;2023-04-01T13:21:54;11.70;99.90
43673;DHT22;41723;49.326;8.430;2023-04-01T13:29:40;11.80;99.90
43673;DHT22;41723;49.326;8.430;2023-04-01T13:32:11;11.80;99.90
43673;DHT22;41723;49.326;8.430;2023-04-01T13:35:01;11.80;99.90
43673;DHT22;41723;49.326;8.430;2023-04-01T13:40:05;11.80;99.90
43673;DHT22;41723;49.326;8.430;2023-04-01T13:53:06;11.80;99.90
43673;DHT22;41723;49.326;8.430;2023-04-01T13:59:02;11.80;99.90
43673;DHT22;41723;49.326;8.430;2023-04-01T14:01:06;11.90;99.90
43673;DHT22;41723;49.326;8.430;2023-04-01T14:13:44;11.80;99.90
43673;DHT22;41723;49.326;8.430;2023-04-01T14:16:16;11.90;99.90
43673;DHT22;41723;49.326;8.430;2023-04-01T14:21:33;11.80;99.90
43673;DHT22;41723;49.326;8.430;2023-04-01T14:27:04;11.80;99.90
43673;DHT22;41723;49.326;8.430;2023-04-01T14:43:21;11.70;99.90
43673;DHT22;41723;49.326;8.430;2023-04-01T14:48:39;11.70;99.90
43673;DHT22;41723;49.326;8.430;2023-04-01T14:53:44;11.80;99.90
43673;DHT22;41723;49.326;8.430;2023-04-01T14:56:16;11.80;99.90
43673;DHT22;41723;49.326;8.430;2023-04-01T14:59:00;11.80;99.90
43673;DHT22;41723;49.326;8.430;2023-04-01T15:14:39;11.80;99.90
43673;DHT22;41723;49.326;8.430;2023-04-01T15:20:07;11.80;99.90
43673;DHT22;41723;49.326;8.430;2023-04-01T15:31:01;11.90;99.90
43673;DHT22;41723;49.326;8.430;2023-04-01T15:36:07;11.80;99.90
43673;DHT22;41723;49.326;8.430;2023-04-01T15:51:11;11.70;99.90
43673;DHT22;41723;49.326;8.430;2023-04-01T15:53:43;11.70;99.90
43673;DHT22;41723;49.326;8.430;2023-04-01T15:56:14;11.70;99.90
43673;DHT22;41723;49.326;8.430;2023-04-01T16:01:15;11.70;99.90
43673;DHT22;41723;49.326;8.430;2023-04-01T16:11:49;11.80;99.90
43673;DHT22;41723;49.326;8.430;2023-04-01T16:19:16;11.80;99.90
43673;DHT22;41723;49.326;8.430;2023-04-01T16:22:05;11.80;99.90
43673;DHT22;41723;49.326;8.430;2023-04-01T16:27:23;11.70;99.90
43673;DHT22;41723;49.326;8.430;2023-04-01T16:29:51;11.70;99.90
43673;DHT22;41723;49.326;8.430;2023-04-01T16:32:41;11.70;99.90
43673;DHT22;41723;49.326;8.430;2023-04-01T16:37:47;11.70;99.90
43673;DHT22;41723;49.326;8.430;2023-04-01T16:42:54;11.70;99.90
43673;DHT22;41723;49.326;8.430;2023-04-01T16:50:48;11.70;99.90
43673;DHT22;41723;49.326;8.430;2023-04-01T16:53:17;11.60;99.90
43673;DHT22;41723;49.326;8.430;2023-04-01T16:55:46;11.60;99.90
43673;DHT22;41723;49.326;8.430;2023-04-01T16:58:18;11.70;99.90
43673;DHT22;41723;49.326;8.430;2023-04-01T17:00:48;11.60;99.90
43673;DHT22;41723;49.326;8.430;2023-04-01T17:03:20;11.60;99.90
43673;DHT22;41723;49.326;8.430;2023-04-01T17:06:07;11.60;99.90
43673;DHT22;41723;49.326;8.430;2023-04-01T17:11:16;11.60;99.90
43673;DHT22;41723;49.326;8.430;2023-04-01T17:16:35;11.60;99.90
43673;DHT22;41723;49.326;8.430;2023-04-01T17:19:12;11.50;99.90
43673;DHT22;41723;49.326;8.430;2023-04-01T17:24:29;11.50;99.90
43673;DHT22;41723;49.326;8.430;2023-04-01T17:29:31;11.50;99.90
43673;DHT22;41723;49.326;8.430;2023-04-01T17:35:11;11.50;99.90
43673;DHT22;41723;49.326;8.430;2023-04-01T17:37:51;11.50;99.90
43673;DHT22;41723;49.326;8.430;2023-04-01T17:45:55;11.40;99.90
43673;DHT22;41723;49.326;8.430;2023-04-01T17:48:40;11.40;99.90
43673;DHT22;41723;49.326;8.430;2023-04-01T17:56:42;11.40;99.90
43673;DHT22;41723;49.326;8.430;2023-04-01T17:59:16;11.40;99.90
43673;DHT22;41723;49.326;8.430;2023-04-01T18:01:46;11.40;99.90
43673;DHT22;41723;49.326;8.430;2023-04-01T18:17:17;11.30;99.90
43673;DHT22;41723;49.326;8.430;2023-04-01T18:24:46;11.20;99.90
43673;DHT22;41723;49.326;8.430;2023-04-01T18:27:15;11.20;99.90
43673;DHT22;41723;49.326;8.430;2023-04-01T18:32:13;11.10;99.90
43673;DHT22;41723;49.326;8.430;2023-04-01T18:34:43;11.10;99.90
43673;DHT22;41723;49.326;8.430;2023-04-01T18:37:22;11.20;99.90
43673;DHT22;41723;49.326;8.430;2023-04-01T18:39:51;11.10;99.90
43673;DHT22;41723;49.326;8.430;2023-04-01T18:45:09;11.10;99.90
43673;DHT22;41723;49.326;8.430;2023-04-01T18:53:50;10.90;99.90
43673;DHT22;41723;49.326;8.430;2023-04-01T18:58:26;10.90;99.90
43673;DHT22;41723;49.326;8.430;2023-04-01T19:05:56;10.90;99.90
43673;DHT22;41723;49.326;8.430;2023-04-01T19:08:27;10.90;99.90
43673;DHT22;41723;49.326;8.430;2023-04-01T19:13:40;10.80;99.90
43673;DHT22;41723;49.326;8.430;2023-04-01T19:19:00;10.90;99.90
43673;DHT22;41723;49.326;8.430;2023-04-01T19:21:34;10.90;99.90
43673;DHT22;41723;49.326;8.430;2023-04-01T19:26:28;10.90;99.90
43673;DHT22;41723;49.326;8.430;2023-04-01T19:28:57;10.80;99.90
43673;DHT22;41723;49.326;8.430;2023-04-01T19:31:46;10.90;99.90
43673;DHT22;41723;49.326;8.430;2023-04-01T19:36:59;10.90;99.90
43673;DHT22;41723;49.326;8.430;2023-04-01T19:39:31;10.80;99.90
43673;DHT22;41723;49.326;8.430;2023-04-01T19:52:07;10.80;99.90
43673;DHT22;41723;49.326;8.430;2023-04-01T19:57:11;10.70;99.90
43673;DHT22;41723;49.326;8.430;2023-04-01T19:59:40;10.80;99.90
43673;DHT22;41723;49.326;8.430;2023-04-01T20:04:44;10.80;99.90
43673;DHT22;41723;49.326;8.430;2023-04-01T20:07:16;10.80;99.90
43673;DHT22;41723;49.326;8.430;2023-04-01T20:15:02;10.80;99.90
43673;DHT22;41723;49.326;8.430;2023-04-01T20:17:33;10.80;99.90
43673;DHT22;41723;49.326;8.430;2023-04-01T20:25:05;10.80;99.90
43673;DHT22;41723;49.326;8.430;2023-04-01T20:27:36;10.80;99.90
43673;DHT22;41723;49.326;8.430;2023-04-01T20:35:22;10.80;99.90
43673;DHT22;41723;49.326;8.430;2023-04-01T20:37:53;10.70;99.90
43673;DHT22;41723;49.326;8.430;2023-04-01T20:43:14;10.70;99.90
43673;DHT22;41723;49.326;8.430;2023-04-01T20:45:50;10.70;99.90
43673;DHT22;41723;49.326;8.430;2023-04-01T20:48:40;10.70;99.90
43673;DHT22;41723;49.326;8.430;2023-04-01T20:51:19;10.70;99.90
43673;DHT22;41723;49.326;8.430;2023-04-01T21:05:00;10.70;99.90
43673;DHT22;41723;49.326;8.430;2023-04-01T21:10:29;10.70;99.90
43673;DHT22;41723;49.326;8.430;2023-04-01T21:34:48;10.60;99.90
43673;DHT22;41723;49.326;8.430;2023-04-01T21:42:52;10.50;99.90
43673;DHT22;41723;49.326;8.430;2023-04-01T22:00:53;10.50;99.90
43673;DHT22;41723;49.326;8.430;2023-04-01T22:03:43;10.50;99.90
43673;DHT22;41723;49.326;8.430;2023-04-01T22:14:14;10.50;99.90
43673;DHT22;41723;49.326;8.430;2023-04-01T22:16:45;10.50;99.90
43673;DHT22;41723;49.326;8.430;2023-04-01T22:19:20;10.50;99.90
43673;DHT22;41723;49.326;8.430;2023-04-01T22:22:01;10.50;99.90
43673;DHT22;41723;49.326;8.430;2023-04-01T22:32:31;10.50;99.90
43673;DHT22;41723;49.326;8.430;2023-04-01T22:40:10;10.50;99.90
43673;DHT22;41723;49.326;8.430;2023-04-01T22:45:18;10.40;99.90
43673;DHT22;41723;49.326;8.430;2023-04-01T22:47:52;10.50;99.90
43673;DHT22;41723;49.326;8.430;2023-04-01T22:50:27;10.50;99.90
43673;DHT22;41723;49.326;8.430;2023-04-01T22:55:41;10.50;99.90
43673;DHT22;41723;49.326;8.430;2023-04-01T22:58:11;10.50;99.90
43673;DHT22;41723;49.326;8.430;2023-04-01T23:00:48;10.50;99.90
43673;DHT22;41723;49.326;8.430;2023-04-01T23:03:16;10.50;99.90
43673;DHT22;41723;49.326;8.430;2023-04-01T23:06:02;10.50;99.90
43673;DHT22;41723;49.326;8.430;2023-04-01T23:10:54;10.40;99.90
43673;DHT22;41723;49.326;8.430;2023-04-01T23:13:26;10.50;99.90
43673;DHT22;41723;49.326;8.430;2023-04-01T23:15:53;10.40;99.90
43673;DHT22;41723;49.326;8.430;2023-04-01T23:18:21;10.40;99.90
43673;DHT22;41723;49.326;8.430;2023-04-01T23:21:06;10.40;99.90
43673;DHT22;41723;49.326;8.430;2023-04-01T23:28:46;10.40;99.90
43673;DHT22;41723;49.326;8.430;2023-04-01T23:34:01;10.40;99.90
43673;DHT22;41723;49.326;8.430;2023-04-01T23:36:28;10.40;99.90
43673;DHT22;41723;49.326;8.430;2023-04-01T23:38:54;10.40;99.90
43673;DHT22;41723;49.326;8.430;2023-04-01T23:41:27;10.30;99.90
43673;DHT22;41723;49.326;8.430;2023-04-01T23:43:56;10.30;99.90
43673;DHT22;41723;49.326;8.430;2023-04-01T23:46:23;10.30;99.90
43673;DHT22;41723;49.326;8.430;2023-04-01T23:48:49;10.30;99.90
43673;DHT22;41723;49.326;8.430;2023-04-01T23:51:22;10.20;99.90
43673;DHT22;41723;49.326;8.430;2023-04-01T23:53:56;10.20;99.90
43673;DHT22;41723;49.326;8.430;2023-04-01T23:56:22;10.20;99.90
43673;DHT22;41723;49.326;8.430;2023-04-01T23:58:48;10.20;99.90
